This is the latest recevied weather packets stored in our database for station/object KC0QBU-13. If no packets are shown the sender has not sent any weather packets the latest 10 day(s).
| Time | Temp. | Humidity | Pressure | Rain* | Wind** | Luminosity | Snow |
|---|---|---|---|---|---|---|---|
| 1777738803 | 14.44° C | 36% | 1022.7 hPa | 0 mm | - | - | - |
| 1777737903 | 14.44° C | 39% | 1022.7 hPa | 0 mm | - | - | - |
| 1777737304 | 13.89° C | 40% | 1022.7 hPa | 0 mm | - | - | - |
| 1777735204 | 12.78° C | 44% | 1022.6 hPa | 0 mm | - | - | - |
| 1777734603 | 12.78° C | 48% | 1022.7 hPa | 0 mm | - | - | - |
| 1777733404 | 12.22° C | 50% | 1022.6 hPa | 0 mm | - | - | - |
| 1777732803 | 11.67° C | 51% | 1022.6 hPa | 0 mm | - | - | - |
| 1777731303 | 10.56° C | 57% | 1022.5 hPa | 0 mm | - | - | - |
| 1777728904 | 8.89° C | 61% | 1022.3 hPa | 0 mm | - | - | - |
| 1777717203 | 5° C | 67% | 1020.5 hPa | 0 mm | - | - | - |
| 1777714804 | 5.56° C | 65% | 1020.4 hPa | 0 mm | - | - | - |
| 1777714203 | 6.11° C | 64% | 1020.4 hPa | 0 mm | - | - | - |
| 1777710003 | 6.67° C | 60% | 1020 hPa | 0 mm | - | - | - |
| 1777707303 | 8.33° C | 50% | 1019.9 hPa | 0 mm | - | - | - |
| 1777705803 | 8.89° C | 49% | 1020 hPa | 0 mm | - | - | - |
| 1777703104 | 9.44° C | 49% | 1020.1 hPa | 0 mm | - | - | - |
| 1777701304 | 10° C | 48% | 1020.2 hPa | 0 mm | - | - | - |
| 1777700704 | 10° C | 47% | 1020.2 hPa | 0 mm | - | - | - |
| 1777700403 | 10° C | 48% | 1020.2 hPa | 0 mm | - | - | - |
| 1777699204 | 10.56° C | 47% | 1020 hPa | 0 mm | - | - | - |
| 1777698004 | 11.11° C | 45% | 1020 hPa | 0 mm | - | - | - |
| 1777692603 | 12.22° C | 48% | 1019.5 hPa | 0 mm | - | - | - |
| 1777691404 | 12.22° C | 46% | 1019.4 hPa | 0 mm | - | - | - |
| 1777691103 | 12.78° C | 45% | 1019.3 hPa | 0 mm | - | - | - |
| 1777690204 | 12.78° C | 45% | 1019.1 hPa | 0 mm | - | - | - |
* Rain latest hour (hover to see other rain measurements)
** Current wind speed in m/s (hover to see current wind gust speed)